createdAt,value
2018-02-14T00:01:58.908Z,-1.41
2018-02-14T00:04:26.384Z,-1.43
2018-02-14T00:06:53.937Z,-1.45
2018-02-14T00:09:21.404Z,-1.48
2018-02-14T00:11:49.021Z,-1.48
2018-02-14T00:14:16.483Z,-1.50
2018-02-14T00:16:43.966Z,-1.54
2018-02-14T00:19:11.629Z,-1.54
2018-02-14T00:21:39.086Z,-1.59
2018-02-14T00:24:06.595Z,-1.66
2018-02-14T00:26:34.077Z,-1.66
2018-02-14T00:29:01.538Z,-1.65
2018-02-14T00:31:28.990Z,-1.68
2018-02-14T00:33:56.498Z,-1.66
2018-02-14T00:36:24.037Z,-1.65
2018-02-14T00:38:51.594Z,-1.67
2018-02-14T00:41:19.061Z,-1.70
2018-02-14T00:43:46.523Z,-1.73
2018-02-14T00:46:14.005Z,-1.71
2018-02-14T00:48:41.526Z,-1.70
2018-02-14T00:51:09.035Z,-1.67
2018-02-14T00:53:36.512Z,-1.66
2018-02-14T00:56:04.001Z,-1.69
2018-02-14T00:58:31.455Z,-1.72
2018-02-14T01:00:58.910Z,-1.74
2018-02-14T01:03:26.394Z,-1.77
2018-02-14T01:05:53.857Z,-1.77
2018-02-14T01:08:21.329Z,-1.77
2018-02-14T01:10:48.804Z,-1.75
2018-02-14T01:13:16.267Z,-1.78
2018-02-14T01:15:43.721Z,-1.82
2018-02-14T01:18:11.331Z,-1.84
2018-02-14T01:20:44.646Z,-1.87
2018-02-14T01:23:12.115Z,-1.89
2018-02-14T01:25:39.610Z,-1.93
2018-02-14T01:28:07.075Z,-1.91
2018-02-14T01:30:34.551Z,-1.82
2018-02-14T01:33:02.036Z,-1.85
2018-02-14T01:35:29.569Z,-1.91
2018-02-14T01:37:57.029Z,-1.97
2018-02-14T01:40:24.497Z,-2.01
2018-02-14T01:42:51.989Z,-2.02
2018-02-14T01:45:19.454Z,-2.04
2018-02-14T01:47:46.919Z,-2.10
2018-02-14T01:50:14.402Z,-2.12
2018-02-14T01:52:41.961Z,-2.13
2018-02-14T01:55:09.523Z,-2.12
2018-02-14T01:57:37.002Z,-2.15
2018-02-14T02:00:04.454Z,-2.15
2018-02-14T02:02:31.996Z,-2.15
2018-02-14T02:04:59.456Z,-2.18
2018-02-14T02:07:26.951Z,-2.21
2018-02-14T02:09:54.413Z,-2.26
2018-02-14T02:12:21.877Z,-2.30
2018-02-14T02:14:49.353Z,-2.35
2018-02-14T02:17:16.810Z,-2.37
2018-02-14T02:19:44.319Z,-2.36
2018-02-14T02:22:11.782Z,-2.39
2018-02-14T02:24:39.241Z,-2.40
2018-02-14T02:27:06.714Z,-2.41
2018-02-14T02:29:34.175Z,-2.40
2018-02-14T02:32:01.674Z,-2.41
2018-02-14T02:34:29.147Z,-2.42
2018-02-14T02:36:56.617Z,-2.41
2018-02-14T02:39:36.049Z,-2.40
2018-02-14T02:42:03.526Z,-2.41
2018-02-14T02:44:30.984Z,-2.42
2018-02-14T02:46:58.495Z,-2.46
2018-02-14T02:49:25.959Z,-2.46
2018-02-14T02:51:53.532Z,-2.47
2018-02-14T02:54:21.036Z,-2.50
2018-02-14T02:56:48.498Z,-2.50
2018-02-14T02:59:15.957Z,-2.50
2018-02-14T03:01:43.443Z,-2.52
2018-02-14T03:04:10.906Z,-2.62
2018-02-14T03:06:38.384Z,-2.64
2018-02-14T03:09:06.035Z,-2.64
2018-02-14T03:11:33.493Z,-2.67
2018-02-14T03:14:00.954Z,-2.68
2018-02-14T03:16:28.510Z,-2.69
2018-02-14T03:18:55.977Z,-2.69
2018-02-14T03:21:23.439Z,-2.69
2018-02-14T03:23:50.948Z,-2.70
2018-02-14T03:26:18.406Z,-2.71
2018-02-14T03:28:45.890Z,-2.71
2018-02-14T03:31:13.346Z,-2.72
2018-02-14T03:33:40.810Z,-2.71
2018-02-14T03:36:08.374Z,-2.71
2018-02-14T03:38:36.027Z,-2.69
2018-02-14T03:41:03.491Z,-2.69
2018-02-14T03:43:30.996Z,-2.67
2018-02-14T03:45:58.477Z,-2.72
2018-02-14T03:48:25.946Z,-2.72
2018-02-14T03:50:53.406Z,-2.73
2018-02-14T03:53:21.123Z,-2.72
2018-02-14T03:55:48.582Z,-2.74
2018-02-14T03:58:16.049Z,-2.73
2018-02-14T04:00:43.647Z,-2.75
2018-02-14T04:03:11.154Z,-2.77
2018-02-14T04:05:38.627Z,-2.80
2018-02-14T04:08:06.126Z,-2.81
2018-02-14T04:10:33.590Z,-2.82
2018-02-14T04:13:01.042Z,-2.83
2018-02-14T04:15:28.566Z,-2.84
2018-02-14T04:17:56.039Z,-2.86
2018-02-14T04:20:23.496Z,-2.89
2018-02-14T04:22:51.006Z,-2.92
2018-02-14T04:25:18.474Z,-2.93
2018-02-14T04:27:45.933Z,-2.94
2018-02-14T04:30:19.285Z,-2.95
2018-02-14T04:32:46.754Z,-2.95
2018-02-14T04:35:14.215Z,-2.96
2018-02-14T04:37:41.703Z,-2.95
2018-02-14T04:40:09.167Z,-2.95
2018-02-14T04:42:36.628Z,-2.93
2018-02-14T04:45:04.106Z,-2.91
2018-02-14T04:47:31.569Z,-2.86
2018-02-14T04:49:59.041Z,-2.81
2018-02-14T04:52:26.498Z,-2.78
2018-02-14T04:54:53.957Z,-2.81
2018-02-14T04:57:21.474Z,-2.84
2018-02-14T04:59:48.933Z,-2.88
2018-02-14T05:02:16.402Z,-2.93
2018-02-14T05:04:43.998Z,-3.01
2018-02-14T05:07:11.490Z,-3.05
2018-02-14T05:09:38.949Z,-3.07
2018-02-14T05:12:06.483Z,-3.11
2018-02-14T05:14:34.014Z,-3.12
2018-02-14T05:17:01.521Z,-3.14
2018-02-14T05:19:28.998Z,-3.17
2018-02-14T05:21:56.535Z,-3.17
2018-02-14T05:24:23.995Z,-3.19
2018-02-14T05:26:51.478Z,-3.23
2018-02-14T05:29:18.938Z,-3.24
2018-02-14T05:31:46.394Z,-3.23
2018-02-14T05:34:13.866Z,-3.25
2018-02-14T05:36:41.347Z,-3.27
2018-02-14T05:39:08.812Z,-3.27
2018-02-14T05:41:36.378Z,-3.27
2018-02-14T05:44:03.854Z,-3.23
2018-02-14T05:46:31.318Z,-3.23
2018-02-14T05:48:58.824Z,-3.22
2018-02-14T05:51:26.281Z,-3.21
2018-02-14T05:53:53.750Z,-3.21
2018-02-14T05:56:21.225Z,-3.22
2018-02-14T05:58:48.750Z,-3.22
2018-02-14T06:01:16.277Z,-3.21
2018-02-14T06:03:43.751Z,-3.18
2018-02-14T06:06:11.210Z,-3.15
2018-02-14T06:08:38.685Z,-3.13
2018-02-14T06:11:06.173Z,-3.15
2018-02-14T06:13:33.702Z,-3.17
2018-02-14T06:16:01.161Z,-3.14
2018-02-14T06:18:28.648Z,-3.09
2018-02-14T06:20:56.112Z,-3.04
2018-02-14T06:23:23.579Z,-3.07
2018-02-14T06:25:51.074Z,-3.05
2018-02-14T06:28:18.526Z,-3.02
2018-02-14T06:30:45.984Z,-3.01
2018-02-14T06:33:13.494Z,-2.98
2018-02-14T06:35:40.979Z,-2.96
2018-02-14T06:38:08.442Z,-2.96
2018-02-14T06:40:35.922Z,-2.95
2018-02-14T06:43:03.387Z,-2.93
2018-02-14T06:45:30.859Z,-2.92
2018-02-14T06:47:58.345Z,-2.90
2018-02-14T06:50:25.821Z,-2.87
2018-02-14T06:55:31.424Z,-2.83
2018-02-14T06:57:58.988Z,-2.83
2018-02-14T07:00:26.451Z,-2.83
2018-02-14T07:02:53.960Z,-2.81
2018-02-14T07:05:21.439Z,-2.83
2018-02-14T07:07:48.901Z,-2.87
2018-02-14T07:10:16.470Z,-2.89
2018-02-14T07:12:43.927Z,-2.86
2018-02-14T07:15:11.492Z,-2.83
2018-02-14T07:17:38.998Z,-2.78
2018-02-14T07:20:06.460Z,-2.74
2018-02-14T07:22:33.918Z,-2.68
2018-02-14T07:25:01.402Z,-2.61
2018-02-14T07:27:28.883Z,-2.58
2018-02-14T07:29:56.355Z,-2.56
2018-02-14T07:32:23.940Z,-2.49
2018-02-14T07:34:51.412Z,-2.44
2018-02-14T07:37:18.878Z,-2.37
2018-02-14T07:39:46.383Z,-2.26
2018-02-14T07:42:13.858Z,-2.15
2018-02-14T07:44:41.320Z,-2.06
2018-02-14T07:47:08.793Z,-1.98
2018-02-14T07:49:36.294Z,-1.91
2018-02-14T07:52:03.749Z,-1.83
2018-02-14T07:54:31.208Z,-1.77
2018-02-14T07:56:58.768Z,-1.71
2018-02-14T07:59:26.226Z,-1.63
2018-02-14T08:01:53.730Z,-1.56
2018-02-14T08:04:21.223Z,-1.46
2018-02-14T08:06:48.687Z,-1.40
2018-02-14T08:09:16.177Z,-1.28
2018-02-14T08:11:43.656Z,-1.19
2018-02-14T08:14:11.117Z,-1.08
2018-02-14T08:16:38.635Z,-1.04
2018-02-14T08:19:06.153Z,-0.95
2018-02-14T08:21:33.618Z,-0.85
2018-02-14T08:24:01.114Z,-0.71
2018-02-14T08:26:28.661Z,-0.65
2018-02-14T08:28:56.229Z,-0.59
2018-02-14T08:31:23.985Z,-0.56
2018-02-14T08:33:51.732Z,-0.50
2018-02-14T08:36:19.196Z,-0.49
2018-02-14T08:38:46.764Z,-0.44
2018-02-14T08:41:14.224Z,-0.35
2018-02-14T08:43:41.691Z,-0.21
2018-02-14T08:46:09.178Z,-0.14
2018-02-14T08:48:36.634Z,-0.09
2018-02-14T08:51:04.106Z,-0.06
2018-02-14T08:53:31.609Z,0.06
2018-02-14T08:55:59.114Z,0.18
2018-02-14T08:58:26.629Z,0.26
2018-02-14T09:00:54.182Z,0.35
2018-02-14T09:03:21.641Z,0.47
2018-02-14T09:05:49.130Z,0.52
2018-02-14T09:08:16.581Z,0.61
2018-02-14T09:10:44.039Z,0.67
2018-02-14T09:13:11.550Z,0.81
2018-02-14T09:15:39.010Z,0.97
2018-02-14T09:18:06.466Z,1.02
2018-02-14T09:20:33.940Z,1.06
2018-02-14T09:23:01.390Z,1.07
2018-02-14T09:25:28.846Z,1.21
2018-02-14T09:27:56.421Z,1.29
2018-02-14T09:30:23.873Z,1.43
2018-02-14T09:32:51.326Z,1.61
2018-02-14T09:35:18.960Z,1.77
2018-02-14T09:37:46.476Z,2.17
2018-02-14T09:40:13.930Z,2.64
2018-02-14T09:42:41.401Z,2.76
2018-02-14T09:45:08.857Z,2.44
2018-02-14T09:47:36.458Z,2.26
2018-02-14T09:50:03.922Z,2.04
2018-02-14T09:52:31.378Z,2.07
2018-02-14T09:54:58.860Z,2.14
2018-02-14T09:57:26.327Z,2.22
2018-02-14T09:59:53.813Z,2.10
2018-02-14T10:02:21.302Z,2.04
2018-02-14T10:04:48.781Z,2.18
2018-02-14T10:07:16.238Z,2.35
2018-02-14T10:09:43.722Z,2.41
2018-02-14T10:12:11.262Z,2.54
2018-02-14T10:14:38.810Z,2.82
2018-02-14T10:17:06.276Z,2.94
2018-02-14T10:19:33.733Z,2.99
2018-02-14T10:22:01.238Z,2.98
2018-02-14T10:24:28.746Z,2.86
2018-02-14T10:26:56.218Z,2.85
2018-02-14T10:29:23.866Z,2.89
2018-02-14T10:31:51.426Z,2.73
2018-02-14T10:34:19.004Z,2.67
2018-02-14T10:36:46.500Z,2.82
2018-02-14T10:39:13.958Z,2.84
2018-02-14T10:41:41.413Z,3.33
2018-02-14T10:44:08.882Z,3.68
2018-02-14T10:46:36.355Z,3.80
2018-02-14T10:49:03.939Z,3.88
2018-02-14T10:51:31.431Z,4.12
2018-02-14T10:53:58.890Z,3.88
2018-02-14T10:56:26.486Z,3.65
2018-02-14T10:58:53.942Z,3.62
2018-02-14T11:01:26.993Z,3.61
2018-02-14T11:03:54.462Z,3.60
2018-02-14T11:06:27.650Z,3.43
2018-02-14T11:08:55.129Z,3.38
2018-02-14T11:11:22.599Z,3.41
2018-02-14T11:13:50.089Z,3.52
2018-02-14T11:16:17.631Z,3.64
2018-02-14T11:18:45.097Z,3.64
2018-02-14T11:21:12.649Z,3.62
2018-02-14T11:23:40.302Z,3.59
2018-02-14T11:26:07.754Z,3.64
2018-02-14T11:28:35.211Z,3.84
2018-02-14T11:31:02.698Z,4.23
2018-02-14T11:33:30.153Z,4.46
2018-02-14T11:35:57.658Z,4.35
2018-02-14T11:38:25.125Z,3.95
2018-02-14T11:40:52.605Z,3.70
2018-02-14T11:43:20.074Z,3.66
2018-02-14T11:45:47.566Z,3.87
2018-02-14T11:48:15.066Z,3.77
2018-02-14T11:50:42.527Z,3.76
2018-02-14T11:53:10.147Z,3.92
2018-02-14T11:55:37.761Z,3.83
2018-02-14T11:58:05.223Z,3.96
2018-02-14T12:00:32.688Z,4.00
2018-02-14T12:03:00.189Z,4.00
2018-02-14T12:05:27.642Z,3.95
2018-02-14T12:07:55.117Z,4.05
2018-02-14T12:10:22.623Z,4.41
2018-02-14T12:12:50.093Z,4.56
2018-02-14T12:15:17.554Z,4.52
2018-02-14T12:17:45.211Z,4.44
2018-02-14T12:20:12.680Z,4.45
2018-02-14T12:22:40.155Z,4.50
2018-02-14T12:25:07.808Z,4.73
2018-02-14T12:27:35.312Z,4.88
2018-02-14T12:30:02.770Z,5.18
2018-02-14T12:32:30.277Z,5.15
2018-02-14T12:34:57.801Z,4.68
2018-02-14T12:37:25.288Z,4.39
2018-02-14T12:39:52.897Z,4.36
2018-02-14T12:42:20.346Z,4.46
2018-02-14T12:44:47.806Z,4.73
2018-02-14T12:47:15.327Z,4.70
2018-02-14T12:49:42.793Z,4.56
2018-02-14T12:52:10.254Z,4.50
2018-02-14T12:54:37.756Z,4.60
2018-02-14T12:57:05.206Z,4.56
2018-02-14T12:59:32.658Z,4.53
2018-02-14T13:02:00.233Z,4.70
2018-02-14T13:04:27.786Z,4.95
2018-02-14T13:06:55.246Z,5.09
2018-02-14T13:09:22.906Z,5.28
2018-02-14T13:11:50.371Z,5.23
2018-02-14T13:14:17.827Z,5.43
2018-02-14T13:16:45.309Z,5.59
2018-02-14T13:19:12.783Z,5.70
2018-02-14T13:21:40.239Z,5.63
2018-02-14T13:24:07.722Z,5.63
2018-02-14T13:26:35.174Z,5.52
2018-02-14T13:29:02.667Z,5.47
2018-02-14T13:31:30.130Z,5.45
2018-02-14T13:33:57.589Z,5.34
2018-02-14T13:36:25.183Z,4.94
2018-02-14T13:38:52.649Z,5.00
2018-02-14T13:41:20.106Z,5.12
2018-02-14T13:43:47.577Z,5.13
2018-02-14T13:46:15.030Z,5.14
2018-02-14T13:48:42.497Z,5.23
2018-02-14T13:51:09.974Z,5.27
2018-02-14T13:53:37.424Z,4.99
2018-02-14T13:56:04.891Z,4.86
2018-02-14T13:58:32.381Z,4.80
2018-02-14T14:00:59.910Z,4.78
2018-02-14T14:03:27.366Z,4.65
2018-02-14T14:05:54.962Z,4.55
2018-02-14T14:08:22.429Z,4.48
2018-02-14T14:10:49.938Z,4.47
2018-02-14T14:13:17.426Z,4.42
2018-02-14T14:15:44.881Z,4.43
2018-02-14T14:18:12.410Z,4.30
2018-02-14T14:20:40.084Z,4.35
2018-02-14T14:23:07.547Z,4.49
2018-02-14T14:25:35.002Z,4.65
2018-02-14T14:28:02.467Z,4.70
2018-02-14T14:30:29.915Z,4.60
2018-02-14T14:32:57.389Z,4.42
2018-02-14T14:35:24.918Z,4.36
2018-02-14T14:37:52.371Z,4.33
2018-02-14T14:40:19.850Z,4.21
2018-02-14T14:42:47.306Z,4.20
2018-02-14T14:45:14.865Z,4.16
2018-02-14T14:47:42.362Z,4.08
2018-02-14T14:50:09.828Z,4.05
2018-02-14T14:52:37.287Z,4.11
2018-02-14T14:55:04.792Z,4.10
2018-02-14T14:57:32.340Z,3.89
2018-02-14T14:59:59.807Z,3.76
2018-02-14T15:02:27.316Z,3.71
2018-02-14T15:04:54.774Z,3.78
2018-02-14T15:07:22.483Z,3.84
2018-02-14T15:09:49.977Z,3.86
2018-02-14T15:12:17.437Z,3.81
2018-02-14T15:14:44.969Z,3.74
2018-02-14T15:17:12.441Z,3.62
2018-02-14T15:19:39.893Z,3.54
2018-02-14T15:22:07.388Z,3.40
2018-02-14T15:24:34.838Z,3.33
2018-02-14T15:27:02.325Z,3.32
2018-02-14T15:29:29.793Z,3.31
2018-02-14T15:31:57.292Z,3.30
2018-02-14T15:34:24.818Z,3.31
2018-02-14T15:36:52.278Z,3.28
2018-02-14T15:39:19.830Z,3.28
2018-02-14T15:41:47.558Z,3.28
2018-02-14T15:44:15.037Z,3.27
2018-02-14T15:46:42.512Z,3.20
2018-02-14T15:49:10.075Z,3.17
2018-02-14T15:51:37.587Z,3.11
2018-02-14T15:54:05.046Z,3.04
2018-02-14T15:56:32.500Z,2.98
2018-02-14T15:59:00.118Z,2.90
2018-02-14T16:01:27.580Z,2.84
2018-02-14T16:03:55.066Z,2.75
2018-02-14T16:06:22.535Z,2.66
2018-02-14T16:08:49.994Z,2.62
2018-02-14T16:11:17.493Z,2.53
2018-02-14T16:13:45.049Z,2.44
2018-02-14T16:16:12.611Z,2.38
2018-02-14T16:18:40.066Z,2.29
2018-02-14T16:21:07.625Z,2.22
2018-02-14T16:23:35.078Z,2.15
2018-02-14T16:26:02.526Z,2.07
2018-02-14T16:28:30.102Z,1.99
2018-02-14T16:30:57.658Z,1.93
2018-02-14T16:33:25.116Z,1.91
2018-02-14T16:35:52.586Z,1.85
2018-02-14T16:38:20.153Z,1.84
2018-02-14T16:40:47.622Z,1.76
2018-02-14T16:43:15.083Z,1.66
2018-02-14T16:45:42.538Z,1.55
2018-02-14T16:48:10.036Z,1.46
2018-02-14T16:50:37.494Z,1.38
2018-02-14T16:53:04.954Z,1.34
2018-02-14T16:55:32.640Z,1.34
2018-02-14T16:58:00.107Z,1.27
2018-02-14T17:00:27.561Z,1.21
2018-02-14T17:02:55.065Z,1.13
2018-02-14T17:05:22.523Z,1.04
2018-02-14T17:07:49.981Z,0.95
2018-02-14T17:10:17.577Z,0.89
2018-02-14T17:12:45.034Z,0.87
2018-02-14T17:15:12.491Z,0.86
2018-02-14T17:17:39.966Z,0.82
2018-02-14T17:20:07.421Z,0.85
2018-02-14T17:22:34.961Z,0.80
2018-02-14T17:25:02.406Z,0.72
2018-02-14T17:27:29.875Z,0.60
2018-02-14T17:29:57.444Z,0.53
2018-02-14T17:32:25.001Z,0.47
2018-02-14T17:34:52.457Z,0.42
2018-02-14T17:37:20.060Z,0.41
2018-02-14T17:39:47.519Z,0.33
2018-02-14T17:42:14.970Z,0.35
2018-02-14T17:44:42.457Z,0.26
2018-02-14T17:47:09.918Z,0.16
2018-02-14T17:49:37.370Z,0.04
2018-02-14T17:52:04.891Z,0.02
2018-02-14T17:54:32.349Z,-0.01
2018-02-14T17:56:59.818Z,-0.09
2018-02-14T17:59:27.309Z,-0.18
2018-02-14T18:01:54.944Z,-0.12
2018-02-14T18:04:22.760Z,-0.20
2018-02-14T18:06:50.215Z,-0.32
2018-02-14T18:09:17.684Z,-0.41
2018-02-14T18:11:45.283Z,-0.44
2018-02-14T18:14:12.905Z,-0.48
2018-02-14T18:16:40.559Z,-0.54
2018-02-14T18:19:08.097Z,-0.61
2018-02-14T18:21:35.543Z,-0.67
2018-02-14T18:24:03.048Z,-0.76
2018-02-14T18:26:30.507Z,-0.82
2018-02-14T18:28:57.997Z,-0.87
2018-02-14T18:31:25.524Z,-0.90
2018-02-14T18:33:53.003Z,-0.96
2018-02-14T18:36:20.618Z,-1.01
2018-02-14T18:38:48.093Z,-1.01
2018-02-14T18:41:15.558Z,-1.01
2018-02-14T18:43:43.027Z,-1.05
2018-02-14T18:46:10.555Z,-1.09
2018-02-14T18:48:38.014Z,-1.10
2018-02-14T18:51:05.502Z,-1.22
2018-02-14T18:53:32.988Z,-1.26
2018-02-14T18:56:00.446Z,-1.37
2018-02-14T18:58:28.154Z,-1.40
2018-02-14T19:00:55.708Z,-1.41
2018-02-14T19:03:23.178Z,-1.49
2018-02-14T19:05:50.684Z,-1.54
2018-02-14T19:08:18.137Z,-1.55
2018-02-14T19:10:45.602Z,-1.61
2018-02-14T19:13:13.298Z,-1.67
2018-02-14T19:15:40.762Z,-1.65
2018-02-14T19:18:08.402Z,-1.73
2018-02-14T19:20:35.916Z,-1.77
2018-02-14T19:23:03.386Z,-1.90
2018-02-14T19:25:30.851Z,-2.10
2018-02-14T19:27:58.556Z,-2.15
2018-02-14T19:30:26.114Z,-2.23
2018-02-14T19:32:53.579Z,-2.23
2018-02-14T19:35:21.126Z,-2.25
2018-02-14T19:37:48.584Z,-2.21
2018-02-14T19:40:16.051Z,-2.14
2018-02-14T19:42:43.554Z,-2.06
2018-02-14T19:45:11.020Z,-1.88
2018-02-14T19:47:38.512Z,-1.84
2018-02-14T19:50:06.023Z,-1.85
2018-02-14T19:52:33.545Z,-1.86
2018-02-14T19:55:01.007Z,-1.91
2018-02-14T19:57:28.502Z,-2.02
2018-02-14T19:59:55.990Z,-2.19
2018-02-14T20:02:23.452Z,-2.21
2018-02-14T20:04:50.954Z,-2.23
2018-02-14T20:07:18.444Z,-2.32
2018-02-14T20:09:45.941Z,-2.33
2018-02-14T20:12:13.595Z,-2.30
2018-02-14T20:14:41.050Z,-2.39
2018-02-14T20:17:08.523Z,-2.44
2018-02-14T20:19:36.034Z,-2.37
2018-02-14T20:22:03.493Z,-2.27
2018-02-14T20:24:30.962Z,-2.27
2018-02-14T20:26:58.587Z,-2.23
2018-02-14T20:29:26.112Z,-2.11
2018-02-14T20:31:53.619Z,-2.00
2018-02-14T20:34:21.107Z,-1.90
2018-02-14T20:36:48.680Z,-1.81
2018-02-14T20:39:16.172Z,-1.98
2018-02-14T20:41:43.648Z,-2.04
2018-02-14T20:44:11.110Z,-2.07
2018-02-14T20:46:38.606Z,-1.89
2018-02-14T20:49:06.064Z,-1.77
2018-02-14T20:51:33.627Z,-1.69
2018-02-14T20:54:01.142Z,-1.63
2018-02-14T20:56:28.609Z,-1.65
2018-02-14T20:58:56.116Z,-1.65
2018-02-14T21:01:23.605Z,-1.70
2018-02-14T21:03:51.114Z,-1.71
2018-02-14T21:06:18.679Z,-1.73
2018-02-14T21:08:46.238Z,-1.68
2018-02-14T21:11:13.708Z,-1.69
2018-02-14T21:13:41.161Z,-1.65
2018-02-14T21:16:08.630Z,-1.64
2018-02-14T21:18:36.110Z,-1.71
2018-02-14T21:21:03.770Z,-1.73
2018-02-14T21:23:31.243Z,-1.85
2018-02-14T21:25:58.790Z,-1.82
2018-02-14T21:28:26.270Z,-1.74
2018-02-14T21:30:53.749Z,-1.69
2018-02-14T21:33:21.246Z,-1.68
2018-02-14T21:35:48.725Z,-1.72
2018-02-14T21:38:16.192Z,-1.74
2018-02-14T21:40:43.691Z,-1.80
2018-02-14T21:43:11.152Z,-1.72
2018-02-14T21:45:38.613Z,-1.64
2018-02-14T21:48:06.113Z,-1.78
2018-02-14T21:50:33.585Z,-1.92
2018-02-14T21:53:01.043Z,-1.93
2018-02-14T21:55:28.532Z,-1.88
2018-02-14T21:57:56.092Z,-1.91
2018-02-14T22:00:23.574Z,-1.89
2018-02-14T22:02:51.112Z,-1.90
2018-02-14T22:05:18.577Z,-1.83
2018-02-14T22:07:46.036Z,-1.93
2018-02-14T22:10:13.526Z,-2.26
2018-02-14T22:12:40.994Z,-2.29
2018-02-14T22:15:08.494Z,-2.22
2018-02-14T22:17:35.976Z,-2.15
2018-02-14T22:20:03.452Z,-2.19
2018-02-14T22:22:30.919Z,-2.21
2018-02-14T22:24:58.403Z,-2.27
2018-02-14T22:27:25.870Z,-2.41
2018-02-14T22:29:53.342Z,-2.40
2018-02-14T22:32:20.817Z,-2.31
2018-02-14T22:34:48.274Z,-2.18
2018-02-14T22:37:15.733Z,-2.10
2018-02-14T22:39:43.231Z,-2.02
2018-02-14T22:42:10.730Z,-1.99
2018-02-14T22:44:38.224Z,-2.18
2018-02-14T22:47:05.687Z,-2.26
2018-02-14T22:49:33.149Z,-2.37
2018-02-14T22:52:00.659Z,-2.36
2018-02-14T22:54:28.236Z,-2.28
2018-02-14T22:56:55.700Z,-2.28
2018-02-14T22:59:23.211Z,-2.35
2018-02-14T23:01:50.671Z,-2.36
2018-02-14T23:04:18.130Z,-2.38
2018-02-14T23:06:45.615Z,-2.25
2018-02-14T23:09:13.169Z,-2.33
2018-02-14T23:11:40.643Z,-2.18
2018-02-14T23:14:08.145Z,-2.22
2018-02-14T23:16:35.634Z,-2.29
2018-02-14T23:19:03.096Z,-2.44
2018-02-14T23:21:30.594Z,-2.49
2018-02-14T23:23:58.071Z,-2.54
2018-02-14T23:26:25.612Z,-2.49
2018-02-14T23:28:53.091Z,-2.37
2018-02-14T23:31:20.553Z,-2.32
2018-02-14T23:33:48.046Z,-2.31
2018-02-14T23:36:15.596Z,-2.31
2018-02-14T23:38:43.059Z,-2.31
2018-02-14T23:41:10.545Z,-2.49
2018-02-14T23:43:38.010Z,-2.60
2018-02-14T23:46:05.466Z,-2.65
2018-02-14T23:48:32.950Z,-2.64
2018-02-14T23:51:00.406Z,-2.63
2018-02-14T23:53:27.876Z,-2.51
2018-02-14T23:55:55.386Z,-2.43
2018-02-14T23:58:22.843Z,-2.40
